createdAt,value
2019-01-24T00:01:52.168Z,24.50
2019-01-24T00:04:22.628Z,24.50
2019-01-24T00:06:52.989Z,24.50
2019-01-24T00:09:23.346Z,24.40
2019-01-24T00:11:53.776Z,24.40
2019-01-24T00:14:24.203Z,24.30
2019-01-24T00:16:54.513Z,24.40
2019-01-24T00:19:24.939Z,24.30
2019-01-24T00:21:55.438Z,24.20
2019-01-24T00:24:25.898Z,24.20
2019-01-24T00:26:56.359Z,24.20
2019-01-24T00:29:26.846Z,24.20
2019-01-24T00:31:57.584Z,24.10
2019-01-24T00:34:28.020Z,24.10
2019-01-24T00:36:58.433Z,24.10
2019-01-24T00:39:28.898Z,24.00
2019-01-24T00:41:59.402Z,24.10
2019-01-24T00:44:29.769Z,24.10
2019-01-24T00:47:00.241Z,24.10
2019-01-24T00:49:31.741Z,24.00
2019-01-24T00:52:02.157Z,24.10
2019-01-24T00:54:32.621Z,24.00
2019-01-24T00:57:03.022Z,24.00
2019-01-24T00:59:33.385Z,24.00
2019-01-24T01:02:03.765Z,23.90
2019-01-24T01:04:34.240Z,24.00
2019-01-24T01:07:04.621Z,23.70
2019-01-24T01:09:35.087Z,23.90
2019-01-24T01:12:05.593Z,23.90
2019-01-24T01:14:36.112Z,23.90
2019-01-24T01:17:06.531Z,23.80
2019-01-24T01:19:36.947Z,23.70
2019-01-24T01:22:07.312Z,23.80
2019-01-24T01:24:37.740Z,23.70
2019-01-24T01:27:08.157Z,23.70
2019-01-24T01:29:38.640Z,23.70
2019-01-24T01:32:09.062Z,23.70
2019-01-24T01:34:39.450Z,23.70
2019-01-24T01:37:09.869Z,23.70
2019-01-24T01:39:40.208Z,23.70
2019-01-24T01:42:10.652Z,23.60
2019-01-24T01:44:41.089Z,23.60
2019-01-24T01:47:11.589Z,23.60
2019-01-24T01:49:42.098Z,23.60
2019-01-24T01:52:12.422Z,23.60
2019-01-24T01:54:42.769Z,23.60
2019-01-24T01:57:13.092Z,23.60
2019-01-24T01:59:43.653Z,23.70
2019-01-24T02:02:14.026Z,23.70
2019-01-24T02:04:44.475Z,23.60
2019-01-24T02:07:14.946Z,23.60
2019-01-24T02:09:45.295Z,23.60
2019-01-24T02:12:15.824Z,23.50
2019-01-24T02:14:46.218Z,23.40
2019-01-24T02:17:16.677Z,23.50
2019-01-24T02:19:47.136Z,23.30
2019-01-24T02:22:17.655Z,23.30
2019-01-24T02:24:48.208Z,23.30
2019-01-24T02:27:18.630Z,23.30
2019-01-24T02:29:50.014Z,23.30
2019-01-24T02:32:20.526Z,23.40
2019-01-24T02:34:51.006Z,23.30
2019-01-24T02:37:21.295Z,23.40
2019-01-24T02:39:51.794Z,23.40
2019-01-24T02:42:23.234Z,23.40
2019-01-24T02:44:53.899Z,23.30
2019-01-24T02:47:24.432Z,23.30
2019-01-24T02:49:54.896Z,23.30
2019-01-24T02:52:25.353Z,23.30
2019-01-24T02:54:55.809Z,23.20
2019-01-24T02:57:26.172Z,23.20
2019-01-24T02:59:56.436Z,23.20
2019-01-24T03:02:26.769Z,23.30
2019-01-24T03:04:57.307Z,23.20
2019-01-24T03:07:27.696Z,23.10
2019-01-24T03:09:59.092Z,23.20
2019-01-24T03:12:29.542Z,23.20
2019-01-24T03:14:59.962Z,23.20
2019-01-24T03:17:30.410Z,23.20
2019-01-24T03:20:00.915Z,23.20
2019-01-24T03:22:31.468Z,23.20
2019-01-24T03:25:01.908Z,23.80
2019-01-24T03:27:32.322Z,23.20
2019-01-24T03:30:02.826Z,23.20
2019-01-24T03:32:33.347Z,23.20
2019-01-24T03:35:04.298Z,23.20
2019-01-24T03:37:35.104Z,23.20
2019-01-24T03:40:06.107Z,23.10
2019-01-24T03:42:36.477Z,23.10
2019-01-24T03:45:08.875Z,23.00
2019-01-24T03:47:39.157Z,23.10
2019-01-24T03:50:11.698Z,23.10
2019-01-24T03:52:42.058Z,23.10
2019-01-24T03:55:12.908Z,23.10
2019-01-24T03:57:43.321Z,23.10
2019-01-24T04:00:18.189Z,23.10
2019-01-24T04:02:48.551Z,23.00
2019-01-24T04:05:18.847Z,23.10
2019-01-24T04:07:49.217Z,23.00
2019-01-24T04:10:20.527Z,23.00
2019-01-24T04:12:50.971Z,23.10
2019-01-24T04:15:23.993Z,23.00
2019-01-24T04:17:54.424Z,23.00
2019-01-24T04:20:24.853Z,23.00
2019-01-24T04:22:55.226Z,23.10
2019-01-24T04:25:25.641Z,23.00
2019-01-24T04:27:56.084Z,23.00
2019-01-24T04:30:26.529Z,23.00
2019-01-24T04:32:56.793Z,23.00
2019-01-24T04:35:27.323Z,23.00
2019-01-24T04:37:57.742Z,23.00
2019-01-24T04:40:28.129Z,23.00
2019-01-24T04:42:58.559Z,22.90
2019-01-24T04:45:28.899Z,22.90
2019-01-24T04:47:59.312Z,23.50
2019-01-24T04:50:29.675Z,22.90
2019-01-24T04:53:00.022Z,22.90
2019-01-24T04:55:30.376Z,22.90
2019-01-24T04:58:00.785Z,22.90
2019-01-24T05:00:31.797Z,22.90
2019-01-24T05:03:02.133Z,22.90
2019-01-24T05:05:32.379Z,22.90
2019-01-24T05:08:02.753Z,22.90
2019-01-24T05:10:33.131Z,22.90
2019-01-24T05:13:03.543Z,22.90
2019-01-24T05:15:33.910Z,22.90
2019-01-24T05:18:04.440Z,22.90
2019-01-24T05:20:34.805Z,22.90
2019-01-24T05:23:05.264Z,23.00
2019-01-24T05:25:35.713Z,22.90
2019-01-24T05:28:06.133Z,22.90
2019-01-24T05:30:36.433Z,22.90
2019-01-24T05:33:06.835Z,22.90
2019-01-24T05:35:37.307Z,22.90
2019-01-24T05:38:07.796Z,23.00
2019-01-24T05:40:38.159Z,23.00
2019-01-24T05:43:08.472Z,23.00
2019-01-24T05:45:38.781Z,23.20
2019-01-24T05:48:09.148Z,23.20
2019-01-24T05:50:39.596Z,23.10
2019-01-24T05:53:09.915Z,23.00
2019-01-24T05:55:40.244Z,23.10
2019-01-24T05:58:10.666Z,23.10
2019-01-24T06:00:45.088Z,23.20
2019-01-24T06:03:15.469Z,23.30
2019-01-24T06:05:45.938Z,23.40
2019-01-24T06:08:16.232Z,23.60
2019-01-24T06:10:46.666Z,21.70
2019-01-24T06:13:17.074Z,20.60
2019-01-24T06:15:47.411Z,20.60
2019-01-24T06:18:18.811Z,21.10
2019-01-24T06:20:49.114Z,20.90
2019-01-24T06:23:19.539Z,21.00
2019-01-24T06:25:49.998Z,21.00
2019-01-24T06:28:20.309Z,21.10
2019-01-24T06:30:50.693Z,20.90
2019-01-24T06:33:21.167Z,21.00
2019-01-24T06:35:51.894Z,21.00
2019-01-24T06:38:22.429Z,20.90
2019-01-24T06:40:52.657Z,21.20
2019-01-24T06:43:22.976Z,21.10
2019-01-24T06:45:53.479Z,21.10
2019-01-24T06:48:25.011Z,21.10
2019-01-24T06:50:55.202Z,20.90
2019-01-24T06:53:27.861Z,20.80
2019-01-24T06:56:01.302Z,21.10
2019-01-24T06:58:33.579Z,21.40
2019-01-24T07:01:04.122Z,22.00
2019-01-24T07:03:34.490Z,21.90
2019-01-24T07:06:07.594Z,21.80
2019-01-24T07:08:38.124Z,21.70
2019-01-24T07:11:18.343Z,22.00
2019-01-24T07:13:48.855Z,21.70
2019-01-24T07:16:19.996Z,21.70
2019-01-24T07:18:50.852Z,22.20
2019-01-24T07:21:45.779Z,22.40
2019-01-24T07:24:22.481Z,23.10
2019-01-24T07:27:20.937Z,23.10
2019-01-24T07:42:16.532Z,23.50
2019-01-24T07:44:48.557Z,28.10
2019-01-24T07:47:26.708Z,28.50
2019-01-24T07:50:05.435Z,28.90
2019-01-24T07:52:37.557Z,29.30
2019-01-24T07:55:13.004Z,29.60
2019-01-24T08:03:28.233Z,30.20
2019-01-24T08:05:58.706Z,30.30
2019-01-24T08:08:30.196Z,32.00
2019-01-24T08:11:00.800Z,31.30
2019-01-24T08:13:31.682Z,31.40
2019-01-24T08:49:02.024Z,33.10
2019-01-24T09:06:06.545Z,33.00
2019-01-24T09:08:39.629Z,33.20
2019-01-24T09:11:14.889Z,33.50
2019-01-24T09:17:23.555Z,34.10
2019-01-24T09:23:03.624Z,34.10
2019-01-24T09:25:59.704Z,35.50
2019-01-24T09:31:13.753Z,34.20
2019-01-24T09:36:45.757Z,35.00
2019-01-24T09:51:08.685Z,35.50
2019-01-24T09:53:44.663Z,35.70
2019-01-24T09:56:36.117Z,36.20
2019-01-24T09:59:07.916Z,36.30
2019-01-24T10:04:54.534Z,36.50
2019-01-24T10:07:28.178Z,36.50
2019-01-24T10:13:04.541Z,36.90
2019-01-24T10:21:05.988Z,36.70
2019-01-24T10:23:38.641Z,36.70
2019-01-24T10:26:09.606Z,38.60
2019-01-24T10:28:40.844Z,38.00
2019-01-24T10:31:20.107Z,32.50
2019-01-24T10:36:25.686Z,33.00
2019-01-24T10:38:59.071Z,31.80
2019-01-24T10:41:38.479Z,33.80
2019-01-24T10:44:12.417Z,33.00
2019-01-24T10:46:44.714Z,32.00
2019-01-24T10:49:19.849Z,32.20
2019-01-24T10:52:04.150Z,32.10
2019-01-24T10:54:28.497Z,31.00
2019-01-24T10:59:55.860Z,31.10
2019-01-24T11:08:31.349Z,30.80
2019-01-24T11:13:52.495Z,28.50
2019-01-24T11:16:25.096Z,28.70
2019-01-24T11:18:55.628Z,29.90
2019-01-24T11:21:27.237Z,29.60
2019-01-24T11:23:58.072Z,30.60
2019-01-24T11:26:30.788Z,30.20
2019-01-24T11:29:01.223Z,28.60
2019-01-24T11:31:33.363Z,27.80
2019-01-24T11:34:07.078Z,27.80
2019-01-24T11:36:56.885Z,27.90
2019-01-24T11:39:49.522Z,26.70
2019-01-24T11:42:21.009Z,26.10
2019-01-24T11:44:51.484Z,26.20
2019-01-24T11:47:28.128Z,26.00
2019-01-24T11:50:20.629Z,26.70
2019-01-24T11:56:09.685Z,26.60
2019-01-24T12:02:18.225Z,25.20
2019-01-24T12:05:38.956Z,27.00
2019-01-24T12:09:24.308Z,27.30
2019-01-24T12:12:45.407Z,27.10
2019-01-24T12:16:08.155Z,26.40
2019-01-24T12:20:54.572Z,28.40
2019-01-24T12:26:09.645Z,27.50
2019-01-24T12:28:45.129Z,27.20
2019-01-24T12:34:16.631Z,27.00
2019-01-24T12:36:49.536Z,26.70
2019-01-24T12:45:02.713Z,26.40
2019-01-24T12:47:37.719Z,26.10
2019-01-24T12:53:22.243Z,25.80
2019-01-24T12:55:56.585Z,25.50
2019-01-24T13:04:05.038Z,30.00
2019-01-24T13:15:26.984Z,33.10
2019-01-24T13:21:11.261Z,34.00
2019-01-24T13:23:57.368Z,34.50
2019-01-24T13:26:49.673Z,36.10
2019-01-24T13:32:11.064Z,37.90
2019-01-24T13:37:46.529Z,39.00
2019-01-24T13:51:24.963Z,40.80
2019-01-24T14:03:42.191Z,41.70
2019-01-24T14:12:26.718Z,43.20
2019-01-24T14:15:08.025Z,43.20
2019-01-24T14:23:18.506Z,41.40
2019-01-24T14:28:41.476Z,40.60
2019-01-24T14:37:11.341Z,87.00
2019-01-24T14:42:12.220Z,37.90
2019-01-24T14:55:38.156Z,34.80
2019-01-24T15:01:08.116Z,35.20
2019-01-24T15:03:54.795Z,35.30
2019-01-24T15:07:10.840Z,35.00
2019-01-24T15:09:43.720Z,33.80
2019-01-24T15:12:19.842Z,33.50
2019-01-24T15:14:50.216Z,33.50
2019-01-24T15:17:22.191Z,32.60
2019-01-24T15:20:05.005Z,32.30
2019-01-24T15:22:35.528Z,31.50
2019-01-24T15:25:08.062Z,30.90
2019-01-24T15:27:39.570Z,30.20
2019-01-24T15:30:13.097Z,29.60
2019-01-24T15:32:44.483Z,29.00
2019-01-24T15:35:14.784Z,28.90
2019-01-24T15:37:45.579Z,28.10
2019-01-24T15:40:22.351Z,27.30
2019-01-24T15:42:52.786Z,26.40
2019-01-24T15:45:23.256Z,26.00
2019-01-24T15:47:53.794Z,26.60
2019-01-24T15:50:24.463Z,26.00
2019-01-24T15:52:54.981Z,25.40
2019-01-24T15:55:25.279Z,24.60
2019-01-24T15:57:55.640Z,24.60
2019-01-24T16:00:28.178Z,24.60
2019-01-24T16:02:58.817Z,24.10
2019-01-24T16:05:29.149Z,24.00
2019-01-24T16:08:01.801Z,23.90
2019-01-24T16:10:31.574Z,23.80
2019-01-24T16:13:01.943Z,23.70
2019-01-24T16:15:34.467Z,23.30
2019-01-24T16:18:06.458Z,23.30
2019-01-24T16:20:36.749Z,23.10
2019-01-24T16:23:07.751Z,23.30
2019-01-24T16:25:38.466Z,23.60
2019-01-24T16:28:09.246Z,23.50
2019-01-24T16:30:39.720Z,22.90
2019-01-24T16:33:10.350Z,22.90
2019-01-24T16:35:41.452Z,22.90
2019-01-24T16:38:13.421Z,23.50
2019-01-24T16:40:43.709Z,23.60
2019-01-24T16:43:14.176Z,23.60
2019-01-24T16:45:44.873Z,23.50
2019-01-24T16:48:15.530Z,23.50
2019-01-24T16:50:46.163Z,23.50
2019-01-24T16:53:16.583Z,23.50
2019-01-24T16:55:46.961Z,23.50
2019-01-24T16:58:18.934Z,23.20
2019-01-24T17:01:17.101Z,23.20
2019-01-24T17:03:47.620Z,23.30
2019-01-24T17:06:18.096Z,23.30
2019-01-24T17:08:49.673Z,23.30
2019-01-24T17:11:20.091Z,23.20
2019-01-24T17:13:50.533Z,23.20
2019-01-24T17:16:20.996Z,23.40
2019-01-24T17:18:51.677Z,23.00
2019-01-24T17:21:22.258Z,23.10
2019-01-24T17:23:52.753Z,22.90
2019-01-24T17:26:23.090Z,22.90
2019-01-24T17:28:53.555Z,22.60
2019-01-24T17:31:23.926Z,22.30
2019-01-24T17:33:54.511Z,22.10
2019-01-24T17:36:24.910Z,21.90
2019-01-24T17:38:55.320Z,21.40
2019-01-24T17:41:25.776Z,21.40
2019-01-24T17:43:56.307Z,21.30
2019-01-24T17:46:26.698Z,21.20
2019-01-24T17:48:57.115Z,20.90
2019-01-24T17:51:27.496Z,21.00
2019-01-24T17:53:57.878Z,20.90
2019-01-24T17:56:28.134Z,20.90
2019-01-24T17:58:58.560Z,20.60
2019-01-24T18:01:29.036Z,20.50
2019-01-24T18:03:59.445Z,20.50
2019-01-24T18:06:29.781Z,20.40
2019-01-24T18:09:00.279Z,20.30
2019-01-24T18:11:31.861Z,21.30
2019-01-24T18:14:02.299Z,22.80
2019-01-24T18:16:32.676Z,23.70
2019-01-24T18:19:03.041Z,23.90
2019-01-24T18:21:33.383Z,24.70
2019-01-24T18:24:03.923Z,25.50
2019-01-24T18:26:34.404Z,27.60
2019-01-24T18:29:05.878Z,30.00
2019-01-24T18:31:36.392Z,29.30
2019-01-24T18:34:06.880Z,29.60
2019-01-24T18:36:37.285Z,29.40
2019-01-24T18:39:10.637Z,29.10
2019-01-24T18:41:41.138Z,28.80
2019-01-24T18:44:11.395Z,28.60
2019-01-24T18:46:41.779Z,28.30
2019-01-24T18:49:12.062Z,28.20
2019-01-24T18:51:42.446Z,28.00
2019-01-24T18:54:12.918Z,27.80
2019-01-24T18:56:43.258Z,27.60
2019-01-24T18:59:13.675Z,27.60
2019-01-24T19:01:44.032Z,28.10
2019-01-24T19:04:14.501Z,27.40
2019-01-24T19:06:44.848Z,27.20
2019-01-24T19:09:15.365Z,27.30
2019-01-24T19:11:45.837Z,27.20
2019-01-24T19:14:16.458Z,27.20
2019-01-24T19:16:47.038Z,27.20
2019-01-24T19:19:17.485Z,27.20
2019-01-24T19:21:47.980Z,27.20
2019-01-24T19:24:18.370Z,27.10
2019-01-24T19:26:48.836Z,27.20
2019-01-24T19:29:19.195Z,27.10
2019-01-24T19:31:49.696Z,27.00
2019-01-24T19:34:20.062Z,26.80
2019-01-24T19:36:50.466Z,27.50
2019-01-24T19:39:20.827Z,26.80
2019-01-24T19:41:51.214Z,26.80
2019-01-24T19:44:21.606Z,26.70
2019-01-24T19:46:51.954Z,26.60
2019-01-24T19:49:22.340Z,26.60
2019-01-24T19:51:52.705Z,26.40
2019-01-24T19:54:23.196Z,26.60
2019-01-24T19:56:54.518Z,26.50
2019-01-24T19:59:26.233Z,26.60
2019-01-24T20:01:56.693Z,26.40
2019-01-24T20:04:27.206Z,26.30
2019-01-24T20:06:57.699Z,26.10
2019-01-24T20:09:28.234Z,26.10
2019-01-24T20:11:58.648Z,26.10
2019-01-24T20:14:28.928Z,26.10
2019-01-24T20:16:59.436Z,26.00
2019-01-24T20:19:29.843Z,25.80
2019-01-24T20:22:00.176Z,25.60
2019-01-24T20:24:30.574Z,25.70
2019-01-24T20:27:02.062Z,25.60
2019-01-24T20:29:32.532Z,25.60
2019-01-24T20:32:03.009Z,25.60
2019-01-24T20:34:33.374Z,25.40
2019-01-24T20:37:03.813Z,25.30
2019-01-24T20:39:34.243Z,25.30
2019-01-24T20:42:04.709Z,25.20
2019-01-24T20:44:35.185Z,25.20
2019-01-24T20:47:05.524Z,25.00
2019-01-24T20:49:35.979Z,25.00
2019-01-24T20:52:06.418Z,25.00
2019-01-24T20:54:36.831Z,24.90
2019-01-24T20:57:07.188Z,24.80
2019-01-24T20:59:37.503Z,24.80
2019-01-24T21:02:07.984Z,24.80
2019-01-24T21:04:38.460Z,24.70
2019-01-24T21:07:08.891Z,24.70
2019-01-24T21:09:39.392Z,24.70
2019-01-24T21:12:09.708Z,24.60
2019-01-24T21:14:40.098Z,24.50
2019-01-24T21:17:10.397Z,24.50
2019-01-24T21:19:40.898Z,24.50
2019-01-24T21:22:11.260Z,24.40
2019-01-24T21:24:41.673Z,24.50
2019-01-24T21:27:12.090Z,24.50
2019-01-24T21:29:42.462Z,24.40
2019-01-24T21:32:12.800Z,24.30
2019-01-24T21:34:43.202Z,24.20
2019-01-24T21:37:13.530Z,24.20
2019-01-24T21:39:43.859Z,24.20
2019-01-24T21:42:14.205Z,24.20
2019-01-24T21:44:44.582Z,24.30
2019-01-24T21:47:14.909Z,24.20
2019-01-24T21:49:45.299Z,24.20
2019-01-24T21:52:15.745Z,24.20
2019-01-24T21:54:47.234Z,24.20
2019-01-24T21:57:17.761Z,24.20
2019-01-24T21:59:48.198Z,24.10
2019-01-24T22:02:18.610Z,24.10
2019-01-24T22:04:48.901Z,24.20
2019-01-24T22:07:20.509Z,24.10
2019-01-24T22:09:52.003Z,24.10
2019-01-24T22:12:22.433Z,24.10
2019-01-24T22:14:52.849Z,24.10
2019-01-24T22:17:24.428Z,24.10
2019-01-24T22:19:54.764Z,24.00
2019-01-24T22:22:25.215Z,24.00
2019-01-24T22:24:55.560Z,24.00
2019-01-24T22:27:25.972Z,23.90
2019-01-24T22:29:56.354Z,23.90
2019-01-24T22:32:26.658Z,23.90
2019-01-24T22:34:57.046Z,23.90
2019-01-24T22:37:27.336Z,23.90
2019-01-24T22:39:57.626Z,23.80
2019-01-24T22:42:27.881Z,23.80
2019-01-24T22:44:58.360Z,23.80
2019-01-24T22:47:28.874Z,23.80
2019-01-24T22:49:59.264Z,23.70
2019-01-24T22:52:29.591Z,23.70
2019-01-24T22:55:00.073Z,23.60
2019-01-24T22:57:30.347Z,23.70
2019-01-24T23:00:00.669Z,23.80
2019-01-24T23:02:32.187Z,23.60
2019-01-24T23:05:02.514Z,23.60
2019-01-24T23:07:32.920Z,23.60
2019-01-24T23:10:03.269Z,23.60
2019-01-24T23:12:34.107Z,23.50
2019-01-24T23:15:05.471Z,23.60
2019-01-24T23:17:35.937Z,23.60
2019-01-24T23:20:07.774Z,23.60
2019-01-24T23:22:38.133Z,23.50
2019-01-24T23:25:08.469Z,23.60
2019-01-24T23:27:38.880Z,23.60
2019-01-24T23:30:09.296Z,23.50
2019-01-24T23:32:39.725Z,23.50
2019-01-24T23:35:10.134Z,23.40
2019-01-24T23:37:40.560Z,23.40
2019-01-24T23:40:11.555Z,23.30
2019-01-24T23:42:41.873Z,23.40
2019-01-24T23:45:12.118Z,23.30
2019-01-24T23:47:42.480Z,23.20
2019-01-24T23:50:12.779Z,23.30
2019-01-24T23:52:43.158Z,23.20
2019-01-24T23:55:13.487Z,23.20
2019-01-24T23:57:43.790Z,23.10
